Time;durP1;ratioP1;P1;durP2;ratioP2;P2;SDS_P1;SDS_P2;PMS_P1;PMS_P2;Temp;Humidity;BMP_temperature;BMP_pressure;BME280_temperature;BME280_humidity;BME280_pressure;Samples;Min_cycle;Max_cycle;Signal;HPM_P1;HPM_P2
2022/09/06 00:00:15;;;;;;;3.05;2.20;;;;;;;22.12;69.77;101530.00;5070577;28;20049;-50
2022/09/06 00:02:42;;;;;;;3.60;2.30;;;;;;;22.08;70.67;101543.97;5070061;28;20378;-47
2022/09/06 00:05:09;;;;;;;5.57;2.40;;;;;;;22.07;71.00;101560.56;5074882;28;20463;-50
2022/09/06 00:07:35;;;;;;;5.45;2.72;;;;;;;22.06;71.52;101572.81;5073127;28;20623;-46
2022/09/06 00:10:01;;;;;;;3.78;2.33;;;;;;;22.11;70.85;101570.19;5074317;28;20028;-48
2022/09/06 00:12:27;;;;;;;7.97;2.80;;;;;;;21.98;71.45;101592.97;5076051;28;20105;-49
2022/09/06 00:14:52;;;;;;;5.53;3.22;;;;;;;22.02;72.28;101617.34;5071123;28;20447;-46
2022/09/06 00:17:18;;;;;;;5.65;3.10;;;;;;;21.98;71.34;101640.09;5073716;28;20503;-49
2022/09/06 00:19:43;;;;;;;5.30;2.95;;;;;;;21.95;71.02;101648.81;5070518;28;20037;-50
2022/09/06 00:22:08;;;;;;;4.43;2.80;;;;;;;21.90;71.87;101661.09;5079969;28;20059;-52
2022/09/06 00:24:36;;;;;;;4.10;3.13;;;;;;;21.91;72.75;101709.09;5074793;28;20028;-46
2022/09/06 00:27:02;;;;;;;6.15;3.00;;;;;;;21.81;71.05;101717.88;5076515;28;20645;-49
2022/09/06 00:29:27;;;;;;;5.00;3.15;;;;;;;21.79;71.82;101720.50;5070160;28;20509;-49
2022/09/06 00:31:53;;;;;;;6.60;3.80;;;;;;;21.75;71.97;101720.50;5074063;28;20137;-50
2022/09/06 00:34:18;;;;;;;4.82;3.95;;;;;;;21.75;70.64;101730.97;5074591;28;20118;-49
2022/09/06 00:36:43;;;;;;;6.18;3.65;;;;;;;21.71;70.44;101722.25;5072670;28;20067;-46
2022/09/06 00:39:09;;;;;;;6.75;3.80;;;;;;;21.66;71.24;101729.28;5073402;28;20035;-49
2022/09/06 00:41:34;;;;;;;7.45;3.97;;;;;;;21.65;70.42;101727.53;5073299;28;20495;-46
2022/09/06 00:43:59;;;;;;;5.50;3.92;;;;;;;21.64;72.41;101726.66;5073097;28;20043;-50
2022/09/06 00:46:28;;;;;;;7.40;4.03;;;;;;;21.61;71.64;101728.44;5074034;28;20029;-50
2022/09/06 00:49:06;;;;;;;4.38;3.53;;;;;;;21.70;70.74;101717.91;5073791;28;20043;-49
2022/09/06 00:51:34;;;;;;;6.00;3.80;;;;;;;21.60;72.14;101718.84;5076973;28;20486;-48
2022/09/06 00:54:05;;;;;;;4.83;4.03;;;;;;;21.55;72.33;101717.97;5070092;28;20029;-47
2022/09/06 00:56:33;;;;;;;6.38;4.10;;;;;;;21.47;71.81;101701.41;5074908;28;20020;-49
2022/09/06 00:58:59;;;;;;;7.50;4.03;;;;;;;21.56;71.89;101704.00;5072100;28;20079;-47
2022/09/06 01:01:24;;;;;;;7.00;3.85;;;;;;;21.53;71.26;101698.78;5072347;28;20568;-50
2022/09/06 01:03:50;;;;;;;5.60;4.13;;;;;;;21.45;72.95;101693.59;5071976;28;20039;-49
2022/09/06 01:06:15;;;;;;;5.10;4.00;;;;;;;21.54;72.61;101677.00;5070739;28;20032;-49
2022/09/06 01:08:53;;;;;;;7.95;4.18;;;;;;;21.57;71.83;101666.50;5073342;28;20050;-50
2022/09/06 01:11:48;;;;;;;5.78;3.92;;;;;;;21.66;71.58;101666.47;5074425;28;20139;-48
2022/09/06 01:14:44;;;;;;;7.60;4.35;;;;;;;21.62;72.47;101668.22;5039854;28;20036;-46
2022/09/06 01:17:15;;;;;;;5.70;4.00;;;;;;;21.56;72.30;101664.75;5072370;28;20028;-50
2022/09/06 01:19:43;;;;;;;8.02;4.53;;;;;;;21.55;72.94;101666.50;5068707;28;20097;-51
2022/09/06 01:22:31;;;;;;;10.23;4.30;;;;;;;21.59;72.54;101662.13;5072391;28;20098;-49
2022/09/06 01:25:09;;;;;;;4.80;4.22;;;;;;;21.55;73.06;101649.94;5058367;28;20044;-47
2022/09/06 01:28:22;;;;;;;8.50;4.40;;;;;;;21.50;72.73;101643.84;5072843;28;20115;-50
2022/09/06 01:31:12;;;;;;;5.68;4.57;;;;;;;21.42;73.28;101626.44;4994587;28;20434;-47
2022/09/06 01:33:43;;;;;;;7.10;4.45;;;;;;;21.26;74.12;101593.34;4992346;28;20037;-46
2022/09/06 01:36:14;;;;;;;7.25;4.45;;;;;;;21.18;74.20;101555.91;5046272;28;20116;-46
2022/09/06 01:38:39;;;;;;;6.72;4.30;;;;;;;21.13;74.75;101540.22;5069572;28;20443;-49
2022/09/06 01:41:04;;;;;;;8.05;4.72;;;;;;;21.10;74.17;101507.97;5072117;28;20122;-51
2022/09/06 01:43:34;;;;;;;6.57;4.55;;;;;;;20.98;74.58;101498.44;5069048;28;20485;-49
2022/09/06 01:46:02;;;;;;;6.78;4.35;;;;;;;20.96;74.94;101481.91;5070775;28;20029;-50
2022/09/06 01:48:57;;;;;;;6.10;4.60;;;;;;;21.10;74.20;101481.84;5072492;28;20077;-47
2022/09/06 01:51:38;;;;;;;6.32;4.65;;;;;;;21.13;73.57;101481.84;5069094;28;20479;-49
2022/09/06 01:54:37;;;;;;;5.47;4.13;;;;;;;21.10;74.17;101487.06;5068271;28;20039;-50
2022/09/06 01:57:45;;;;;;;6.97;4.43;;;;;;;21.13;73.23;101479.22;5071726;28;20028;-49
2022/09/06 02:00:13;;;;;;;4.57;4.18;;;;;;;21.02;75.29;101483.63;5031760;28;1115360;-48
2022/09/06 02:03:07;;;;;;;6.47;4.30;;;;;;;21.05;74.13;101488.81;5070420;28;20040;-46
2022/09/06 02:05:49;;;;;;;6.68;4.50;;;;;;;21.04;74.05;101479.25;5070823;28;20770;-46
2022/09/06 02:08:19;;;;;;;5.88;4.13;;;;;;;21.01;74.38;101477.53;5075747;28;20032;-49
2022/09/06 02:10:56;;;;;;;7.20;4.57;;;;;;;21.05;73.99;101484.50;5070678;28;20892;-47
2022/09/06 02:13:24;;;;;;;7.07;4.45;;;;;;;21.03;74.80;101487.97;5074979;28;20114;-47
2022/09/06 02:15:53;;;;;;;;;;;;;;;21.28;72.33;101481.72;5072007;28;20496;-48
2022/09/06 02:18:23;;;;;;;7.07;4.10;;;;;;;21.08;73.90;101476.63;5074119;28;19912;-47
2022/09/06 02:20:55;;;;;;;6.47;4.50;;;;;;;21.07;74.26;101466.19;5069870;28;20047;-50
2022/09/06 02:23:24;;;;;;;6.10;4.40;;;;;;;21.01;75.15;101471.44;5068623;28;20600;-47
2022/09/06 02:25:54;;;;;;;6.40;4.10;;;;;;;21.02;75.01;101484.50;5067458;28;20991;-46
2022/09/06 02:28:20;;;;;;;7.40;4.63;;;;;;;20.91;75.41;101507.19;5070837;28;20915;-50
2022/09/06 02:30:50;;;;;;;5.68;4.30;;;;;;;20.99;75.54;101521.13;5072334;28;20508;-47
2022/09/06 02:33:19;;;;;;;8.32;4.50;;;;;;;20.90;76.56;101544.69;5071416;28;20020;-47
2022/09/06 02:35:50;;;;;;;5.20;4.35;;;;;;;20.95;75.48;101516.78;5068109;28;20559;-49
2022/09/06 02:38:19;;;;;;;5.40;4.10;;;;;;;20.88;76.02;101517.69;5075954;28;20515;-49
2022/09/06 02:40:45;;;;;;;;;;;;;;;21.15;73.13;101521.91;5072249;28;20042;-48
2022/09/06 02:43:10;;;;;;;4.85;4.35;;;;;;;20.93;75.48;101510.69;5073103;28;19924;-50
2022/09/06 02:45:36;;;;;;;6.90;4.00;;;;;;;20.83;75.44;101506.38;5073141;28;20031;-47
2022/09/06 02:48:02;;;;;;;5.70;4.30;;;;;;;20.85;75.44;101499.38;5073601;28;20790;-48
2022/09/06 02:50:27;;;;;;;6.43;4.70;;;;;;;20.76;75.96;101496.81;5070756;28;20043;-47
2022/09/06 02:53:13;;;;;;;5.13;4.50;;;;;;;20.80;75.77;101491.56;5069420;28;20401;-49
2022/09/06 02:55:39;;;;;;;6.10;4.72;;;;;;;20.68;75.48;101494.22;5069138;28;20044;-46
2022/09/06 02:58:09;;;;;;;5.53;4.45;;;;;;;20.65;76.63;101499.47;5071885;28;20040;-50
2022/09/06 03:00:34;;;;;;;5.60;4.53;;;;;;;20.68;76.52;101499.44;5066202;28;20044;-49
2022/09/06 03:03:00;;;;;;;6.50;4.65;;;;;;;20.69;76.13;101497.69;5069004;28;20400;-48
2022/09/06 03:05:26;;;;;;;5.65;4.70;;;;;;;20.71;76.21;101490.75;5074527;28;20061;-46
2022/09/06 03:07:53;;;;;;;6.60;4.85;;;;;;;20.72;76.17;101490.72;5066484;28;20061;-47
2022/09/06 03:10:19;;;;;;;6.13;4.72;;;;;;;20.73;76.31;101492.47;5070719;28;20028;-48
2022/09/06 03:12:45;;;;;;;5.68;4.90;;;;;;;20.72;76.70;101488.13;5067661;28;20538;-48
2022/09/06 03:15:12;;;;;;;5.25;4.65;;;;;;;20.71;77.32;101482.91;5068862;28;20449;-47
2022/09/06 03:17:38;;;;;;;5.70;5.00;;;;;;;20.62;76.97;101474.19;5070509;28;20536;-48
2022/09/06 03:20:04;;;;;;;5.78;4.70;;;;;;;20.59;77.05;101481.19;5073431;28;20103;-50
2022/09/06 03:22:30;;;;;;;5.78;4.95;;;;;;;20.54;77.42;101488.19;5074636;28;20559;-49
2022/09/06 03:24:56;;;;;;;5.65;4.82;;;;;;;20.53;77.36;101484.69;5066409;28;20036;-46
2022/09/06 03:27:22;;;;;;;7.07;5.20;;;;;;;20.54;77.46;101481.22;5072048;28;20054;-50
2022/09/06 03:29:47;;;;;;;6.32;5.30;;;;;;;20.47;78.40;101483.84;5069810;28;20036;-52
2022/09/06 03:32:12;;;;;;;6.38;5.00;;;;;;;20.44;78.49;101500.34;5070304;28;20029;-49
2022/09/06 03:34:38;;;;;;;5.85;5.25;;;;;;;20.39;78.02;101501.28;5073535;28;20642;-50
2022/09/06 03:37:03;;;;;;;6.93;5.60;;;;;;;20.36;78.41;101497.75;5071039;28;20093;-50
2022/09/06 03:39:29;;;;;;;6.60;4.93;;;;;;;20.39;78.43;101504.75;5072593;28;20115;-48
2022/09/06 03:41:54;;;;;;;6.10;5.13;;;;;;;20.38;78.75;101504.72;5065925;28;20405;-49
2022/09/06 03:44:20;;;;;;;5.53;4.78;;;;;;;20.38;78.05;101499.50;5073187;28;20024;-48
2022/09/06 03:46:45;;;;;;;6.78;4.90;;;;;;;20.40;77.90;101503.00;5067048;28;20096;-52
2022/09/06 03:49:10;;;;;;;7.75;5.72;;;;;;;20.36;77.95;101504.72;5072404;28;20242;-48
2022/09/06 03:51:36;;;;;;;6.13;5.03;;;;;;;20.34;77.62;101502.13;5068669;28;20027;-48
2022/09/06 03:54:01;;;;;;;6.20;5.55;;;;;;;20.30;77.23;101504.75;5066460;28;20505;-49
2022/09/06 03:56:27;;;;;;;8.57;5.40;;;;;;;20.32;77.45;101503.00;5068969;28;20033;-48
2022/09/06 03:58:52;;;;;;;9.20;5.30;;;;;;;20.24;78.02;101508.25;5071399;28;20044;-50
2022/09/06 04:01:17;;;;;;;6.03;5.45;;;;;;;20.24;77.81;101507.38;5066836;28;20110;-46
2022/09/06 04:03:43;;;;;;;7.28;5.75;;;;;;;20.20;77.86;101511.72;5073725;28;20523;-48
2022/09/06 04:06:08;;;;;;;6.75;5.38;;;;;;;20.19;78.15;101516.94;5070174;28;20566;-46
2022/09/06 04:08:35;;;;;;;6.00;5.40;;;;;;;20.24;77.94;101508.25;5069046;28;20032;-49
2022/09/06 04:11:01;;;;;;;5.68;5.07;;;;;;;20.20;77.82;101506.50;5068748;28;20508;-51
2022/09/06 04:13:28;;;;;;;7.70;5.75;;;;;;;20.15;77.96;101505.66;5072037;28;20032;-46
2022/09/06 04:15:54;;;;;;;7.10;5.80;;;;;;;20.09;78.30;101508.28;5068197;28;20229;-50
2022/09/06 04:18:20;;;;;;;7.07;5.22;;;;;;;20.03;78.67;101503.94;5068342;28;20107;-50
2022/09/06 04:20:50;;;;;;;6.15;5.03;;;;;;;20.05;77.79;101506.53;5070743;28;20039;-48
2022/09/06 04:23:16;;;;;;;6.93;5.65;;;;;;;19.97;78.55;101513.50;5065083;28;20093;-51
2022/09/06 04:25:48;;;;;;;9.05;5.85;;;;;;;20.03;78.14;101508.28;5071234;28;20070;-46
2022/09/06 04:28:14;;;;;;;8.35;5.82;;;;;;;19.94;78.13;101529.16;5067090;28;20145;-48
2022/09/06 04:30:40;;;;;;;6.53;5.85;;;;;;;19.92;77.91;101518.72;5068402;28;20401;-51
2022/09/06 04:33:05;;;;;;;10.05;6.22;;;;;;;19.91;77.76;101523.94;5068372;28;20033;-50
2022/09/06 04:35:30;;;;;;;8.05;5.97;;;;;;;19.93;78.06;101532.63;5070122;28;20031;-47
2022/09/06 04:37:59;;;;;;;6.70;6.00;;;;;;;19.82;78.37;101530.88;5069978;28;20032;-50
2022/09/06 04:40:25;;;;;;;8.65;6.35;;;;;;;19.74;78.24;101527.41;5072144;28;20029;-46
2022/09/06 04:42:50;;;;;;;8.73;6.20;;;;;;;19.70;78.26;101541.31;5070885;28;20031;-48
2022/09/06 04:45:15;;;;;;;6.95;5.68;;;;;;;19.74;77.87;101529.16;5065473;28;20032;-47
2022/09/06 04:47:41;;;;;;;6.88;6.05;;;;;;;19.67;78.28;101530.88;5065127;28;20021;-46
2022/09/06 04:50:07;;;;;;;9.52;5.72;;;;;;;19.71;77.81;101526.53;5068109;28;20074;-46
2022/09/06 04:52:32;;;;;;;6.57;5.97;;;;;;;19.71;78.17;101526.53;5073712;28;20028;-50
2022/09/06 04:54:57;;;;;;;7.07;6.30;;;;;;;19.64;78.38;101522.16;5073402;28;20446;-51
2022/09/06 04:57:23;;;;;;;9.48;6.63;;;;;;;19.68;78.06;101526.53;5070386;28;20052;-49
2022/09/06 04:59:48;;;;;;;9.10;6.60;;;;;;;19.64;78.32;101520.44;5071223;28;20105;-48
2022/09/06 05:02:13;;;;;;;12.43;6.50;;;;;;;19.62;78.40;101523.91;5072991;28;20549;-48
2022/09/06 05:04:39;;;;;;;7.00;6.30;;;;;;;19.57;78.40;101529.09;5073967;28;20612;-47
2022/09/06 05:07:06;;;;;;;8.95;6.40;;;;;;;19.52;78.58;101526.47;5075312;28;20064;-47
2022/09/06 05:09:33;;;;;;;8.13;6.38;;;;;;;19.45;78.73;101535.16;5068986;28;20523;-50
2022/09/06 05:11:59;;;;;;;8.55;6.53;;;;;;;19.47;78.45;101529.94;5073139;28;20158;-48
2022/09/06 05:14:26;;;;;;;8.90;6.30;;;;;;;19.42;78.87;101534.28;5072697;28;20082;-46
2022/09/06 05:16:51;;;;;;;9.82;6.38;;;;;;;19.46;78.25;101533.41;5070089;28;20059;-48
2022/09/06 05:19:18;;;;;;;8.10;6.60;;;;;;;19.48;78.18;101523.88;5073172;28;20020;-50
2022/09/06 05:21:44;;;;;;;7.05;6.35;;;;;;;19.42;78.57;101527.34;5072130;28;20032;-48
2022/09/06 05:24:09;;;;;;;10.18;6.75;;;;;;;19.38;79.10;101525.56;5072791;28;20024;-51
2022/09/06 05:26:35;;;;;;;8.43;6.65;;;;;;;19.40;78.96;101530.78;5073223;28;20129;-48
2022/09/06 05:29:00;;;;;;;12.13;6.35;;;;;;;19.41;78.60;101533.38;5075133;28;20032;-46
2022/09/06 05:31:28;;;;;;;11.68;6.68;;;;;;;19.38;79.14;101538.63;5073438;28;20028;-47
2022/09/06 05:33:54;;;;;;;9.23;6.53;;;;;;;19.33;79.31;101532.50;5070120;28;20036;-50
2022/09/06 05:36:22;;;;;;;9.88;6.78;;;;;;;19.36;79.32;101534.28;5076877;28;20032;-48
2022/09/06 05:38:49;;;;;;;8.80;7.18;;;;;;;19.32;79.46;101540.34;5072502;28;20032;-46
2022/09/06 05:41:14;;;;;;;8.70;7.45;;;;;;;19.36;79.25;101539.50;5074303;28;20012;-48
2022/09/06 05:43:40;;;;;;;10.30;7.55;;;;;;;19.35;79.43;101542.94;5070751;28;20039;-48
2022/09/06 05:46:05;;;;;;;9.85;7.13;;;;;;;19.36;79.06;101549.91;5072619;28;20031;-50
2022/09/06 05:48:30;;;;;;;9.63;7.88;;;;;;;19.36;79.41;101545.56;5068285;28;20055;-47
2022/09/06 05:51:13;;;;;;;9.20;7.50;;;;;;;19.44;79.60;101542.97;5074016;28;20032;-47
2022/09/06 05:53:42;;;;;;;14.35;7.78;;;;;;;19.35;79.34;101545.53;5073043;28;20059;-48
2022/09/06 05:56:07;;;;;;;10.00;6.80;;;;;;;19.44;79.93;101550.81;5066659;28;20472;-48
2022/09/06 05:58:33;;;;;;;11.35;7.40;;;;;;;19.42;79.87;101544.72;5072872;28;20373;-49
2022/09/06 06:01:21;;;;;;;11.70;7.60;;;;;;;19.52;79.15;101547.31;5070933;28;20124;-48
2022/09/06 06:03:52;;;;;;;9.68;7.07;;;;;;;19.53;79.52;101545.59;5074083;28;20090;-50
2022/09/06 06:06:19;;;;;;;9.30;7.30;;;;;;;19.57;78.69;101549.94;5072967;28;20571;-46
2022/09/06 06:08:44;;;;;;;10.95;7.10;;;;;;;19.59;79.09;101549.97;5073585;28;20031;-49
2022/09/06 06:11:10;;;;;;;10.40;7.70;;;;;;;19.58;79.58;101541.28;5069673;28;20147;-47
2022/09/06 06:13:38;;;;;;;11.32;7.72;;;;;;;19.68;78.71;101547.41;5073892;28;20097;-48
2022/09/06 06:16:05;;;;;;;12.55;8.15;;;;;;;19.68;78.71;101545.66;5072106;28;20090;-51
2022/09/06 06:18:31;;;;;;;9.95;7.47;;;;;;;19.69;79.25;101543.91;5072426;28;20048;-49
2022/09/06 06:21:10;;;;;;;13.23;7.88;;;;;;;19.79;78.67;101543.94;5073836;28;20085;-45
2022/09/06 06:23:36;;;;;;;11.55;8.02;;;;;;;19.80;79.25;101550.03;5066785;28;20036;-46
2022/09/06 06:26:02;;;;;;;11.95;8.00;;;;;;;19.87;78.84;101543.06;5071882;28;20031;-49
2022/09/06 06:28:27;;;;;;;10.80;7.97;;;;;;;19.87;78.89;101543.06;5073308;28;21449;-46
2022/09/06 06:30:53;;;;;;;10.73;7.90;;;;;;;19.94;77.91;101547.41;5071034;28;20401;-47
2022/09/06 06:33:19;;;;;;;11.77;8.73;;;;;;;19.99;79.53;101549.16;5077452;28;20041;-48
2022/09/06 06:36:00;;;;;;;9.45;8.38;;;;;;;20.07;79.02;101546.53;5069178;28;20389;-45
2022/09/06 06:38:35;;;;;;;9.80;7.38;;;;;;;20.15;77.57;101549.19;5073031;28;20559;-47
2022/09/06 06:41:00;;;;;;;10.80;7.63;;;;;;;20.14;77.26;101532.59;5067178;28;20029;-46
2022/09/06 06:43:27;;;;;;;11.45;7.22;;;;;;;20.19;77.07;101530.88;5069209;28;20627;-46
2022/09/06 06:45:53;;;;;;;10.82;7.15;;;;;;;20.17;77.77;101532.63;5071065;28;20042;-46
2022/09/06 06:48:19;;;;;;;9.63;7.57;;;;;;;20.26;77.70;101537.84;5069585;28;20029;-45
2022/09/06 06:50:44;;;;;;;10.05;6.78;;;;;;;20.37;77.03;101535.19;5073612;28;20043;-45
2022/09/06 06:53:09;;;;;;;12.07;7.05;;;;;;;20.43;76.20;101532.56;5075572;28;20516;-47
2022/09/06 06:55:35;;;;;;;11.00;6.95;;;;;;;20.50;76.16;101533.47;5075411;28;20061;-45
2022/09/06 06:58:00;;;;;;;9.35;7.90;;;;;;;20.57;75.89;101532.59;5071010;28;20111;-45
2022/09/06 07:00:27;;;;;;;9.13;7.60;;;;;;;20.60;75.70;101535.19;5069905;28;20417;-46
2022/09/06 07:02:54;;;;;;;10.88;7.10;;;;;;;20.67;76.17;101526.47;5070153;28;20110;-47
2022/09/06 07:05:20;;;;;;;12.00;7.57;;;;;;;20.71;76.63;101532.56;5068871;28;20035;-47
2022/09/06 07:07:45;;;;;;;10.15;6.88;;;;;;;20.83;76.29;101537.75;5066000;28;20028;-47
2022/09/06 07:10:11;;;;;;;8.88;6.78;;;;;;;20.95;75.08;101534.22;5070199;28;20024;-48
2022/09/06 07:12:36;;;;;;;12.20;7.70;;;;;;;21.06;75.65;101535.91;5069000;28;20032;-46
2022/09/06 07:15:02;;;;;;;8.90;7.45;;;;;;;21.17;74.08;101528.00;5073139;28;20060;-48
2022/09/06 07:17:28;;;;;;;10.90;6.97;;;;;;;21.24;74.10;101526.25;5070762;28;20028;-46
2022/09/06 07:19:53;;;;;;;13.95;7.72;;;;;;;21.29;74.04;101520.09;5071664;28;20951;-46
2022/09/06 07:22:18;;;;;;;8.00;6.40;;;;;;;21.39;73.11;101516.56;5068172;28;20040;-46
2022/09/06 07:24:44;;;;;;;10.10;6.82;;;;;;;21.47;74.01;101523.50;5066549;28;20102;-47
2022/09/06 07:27:09;;;;;;;11.05;7.53;;;;;;;21.60;72.81;101517.31;5069257;28;20048;-47
2022/09/06 07:29:34;;;;;;;11.15;7.25;;;;;;;21.70;72.24;101532.06;5072976;28;20043;-46
2022/09/06 07:32:00;;;;;;;9.38;7.28;;;;;;;21.77;72.39;101523.28;5067760;28;20032;-46
2022/09/06 07:34:25;;;;;;;9.15;6.97;;;;;;;21.91;72.19;101520.56;5073038;28;20392;-46
2022/09/06 07:36:53;;;;;;;9.75;7.28;;;;;;;22.02;71.77;101516.09;5072310;28;20059;-48
2022/09/06 07:39:18;;;;;;;10.65;7.55;;;;;;;22.11;71.17;101518.66;5075219;28;20481;-46
2022/09/06 07:41:43;;;;;;;9.77;6.68;;;;;;;22.21;71.89;101528.19;5071962;28;20024;-49
2022/09/06 07:44:09;;;;;;;9.25;6.85;;;;;;;22.35;71.27;101527.19;5068844;28;20222;-47
2022/09/06 07:46:34;;;;;;;9.00;6.70;;;;;;;22.39;72.88;101529.75;5070584;28;20496;-49
2022/09/06 07:49:04;;;;;;;7.93;6.00;;;;;;;22.51;70.41;101526.16;5066804;28;20035;-49
2022/09/06 07:51:29;;;;;;;6.93;5.40;;;;;;;22.58;69.72;101519.94;5070475;28;20028;-47
2022/09/06 07:53:54;;;;;;;8.38;5.85;;;;;;;22.65;68.84;101528.59;5073700;28;20024;-45
2022/09/06 07:56:21;;;;;;;6.70;5.97;;;;;;;22.73;70.61;101526.75;5068309;28;20101;-48
2022/09/06 07:58:48;;;;;;;9.35;5.43;;;;;;;22.77;67.45;101519.75;5072357;28;20055;-50
2022/09/06 08:01:33;;;;;;;8.27;5.90;;;;;;;22.90;68.56;101516.97;5068524;28;20087;-47
2022/09/06 08:04:11;;;;;;;10.68;5.47;;;;;;;22.97;69.00;101516.00;5070740;28;20106;-47
2022/09/06 08:06:40;;;;;;;7.07;5.40;;;;;;;23.01;68.54;101514.22;5070389;28;20720;-46
2022/09/06 08:09:07;;;;;;;7.03;5.07;;;;;;;23.09;68.93;101508.84;5069322;28;20043;-46
2022/09/06 08:11:33;;;;;;;9.05;5.38;;;;;;;23.17;67.48;101502.59;5070293;28;20032;-47
2022/09/06 08:14:00;;;;;;;7.88;5.18;;;;;;;23.23;69.48;101504.28;5068604;28;20064;-46
2022/09/06 08:16:28;;;;;;;11.02;4.78;;;;;;;23.27;67.14;101509.47;5073448;28;20040;-49
2022/09/06 08:18:55;;;;;;;9.02;4.40;;;;;;;23.33;68.87;101503.28;5075301;28;20021;-47
2022/09/06 08:21:25;;;;;;;16.00;5.30;;;;;;;23.35;69.47;101503.25;5073417;28;20043;-47
2022/09/06 08:23:53;;;;;;;7.63;4.60;;;;;;;23.40;68.60;101497.03;5073961;28;20036;-47
2022/09/06 08:26:21;;;;;;;6.65;4.47;;;;;;;23.43;68.15;101506.63;5074698;28;20024;-48
2022/09/06 08:28:47;;;;;;;6.57;4.38;;;;;;;23.46;67.22;101509.19;5080598;28;20692;-47
2022/09/06 08:31:15;;;;;;;6.15;4.40;;;;;;;23.57;65.69;101511.66;5082602;28;20488;-46
2022/09/06 08:33:42;;;;;;;5.53;4.33;;;;;;;23.62;67.38;101497.63;5077388;28;20028;-47
2022/09/06 08:36:08;;;;;;;15.23;4.82;;;;;;;23.70;67.59;101505.38;5078816;28;20417;-46
2022/09/06 08:38:34;;;;;;;7.15;4.03;;;;;;;23.78;65.17;101508.72;5072191;28;20028;-47
2022/09/06 08:41:06;;;;;;;8.57;3.80;;;;;;;23.80;66.06;101515.69;5080378;28;20035;-49
2022/09/06 08:43:32;;;;;;;7.72;3.30;;;;;;;23.85;64.03;101515.63;5074878;28;20373;-46
2022/09/06 08:45:57;;;;;;;6.70;3.35;;;;;;;23.90;65.99;101512.91;5077114;28;20073;-48
2022/09/06 08:48:25;;;;;;;8.02;3.65;;;;;;;23.97;66.07;101497.03;5075522;28;20044;-47
2022/09/06 08:51:09;;;;;;;6.37;3.30;;;;;;;24.08;64.72;101504.72;5075510;28;20052;-48
2022/09/06 08:53:41;;;;;;;9.65;3.25;;;;;;;24.12;64.23;101505.53;5071696;28;20531;-46
2022/09/06 08:56:29;;;;;;;5.57;2.92;;;;;;;24.21;65.25;101508.00;5077673;28;20437;-47
2022/09/06 08:58:58;;;;;;;;;;;;;;;24.33;64.90;101500.75;5076740;28;20094;-46
2022/09/06 09:01:26;;;;;;;;;;;;;;;24.40;62.76;101500.69;5082340;28;19958;-49
2022/09/06 09:03:56;;;;;;;4.40;1.65;;;;;;;24.42;61.33;101502.38;5079369;28;19912;-47
2022/09/06 09:06:24;;;;;;;6.13;2.00;;;;;;;24.45;61.68;101509.31;5082886;28;20025;-47
2022/09/06 09:09:21;;;;;;;2.42;1.67;;;;;;;24.54;61.56;101507.38;5075329;28;20075;-46
2022/09/06 09:11:50;;;;;;;3.28;1.80;;;;;;;24.53;60.66;101500.41;5055573;28;20086;-46
2022/09/06 09:14:34;;;;;;;4.13;2.00;;;;;;;24.67;61.04;101496.63;5079711;28;20024;-45
2022/09/06 09:17:21;;;;;;;2.67;1.83;;;;;;;24.73;61.93;101497.38;5076264;28;20040;-45
2022/09/06 09:19:47;;;;;;;3.55;1.90;;;;;;;24.78;59.83;101492.00;5074726;28;20031;-47
2022/09/06 09:22:17;;;;;;;4.32;1.77;;;;;;;24.72;60.58;101487.75;5074902;28;20032;-45
2022/09/06 09:24:43;;;;;;;2.20;1.60;;;;;;;24.91;60.21;101492.63;5072046;28;20121;-46
2022/09/06 09:27:12;;;;;;;3.95;1.90;;;;;;;24.92;59.93;101489.94;5071386;28;20040;-46
2022/09/06 09:29:52;;;;;;;;;;;;;;;25.05;60.46;101487.94;5076312;28;20043;-48
2022/09/06 09:32:36;;;;;;;4.68;2.03;;;;;;;25.07;61.03;101492.28;5071116;28;20337;-46
2022/09/06 09:35:14;;;;;;;3.20;1.73;;;;;;;25.13;60.31;101493.94;5066881;28;20036;-46
2022/09/06 09:37:39;;;;;;;4.03;2.10;;;;;;;25.16;60.15;101492.97;5070305;28;20016;-46
2022/09/06 09:40:11;;;;;;;4.55;2.17;;;;;;;25.23;59.04;101502.47;5072790;28;20221;-45
2022/09/06 09:42:37;;;;;;;3.17;1.90;;;;;;;25.28;58.56;101498.81;5067440;28;20095;-46
2022/09/06 09:45:27;;;;;;;5.25;2.38;;;;;;;25.32;59.73;101497.88;5071515;28;20039;-46
2022/09/06 09:47:52;;;;;;;6.50;2.38;;;;;;;25.40;57.99;101490.63;5083883;28;20020;-46
2022/09/06 09:50:27;;;;;;;4.80;2.28;;;;;;;25.50;59.18;101501.84;5072224;28;20059;-47
2022/09/06 09:52:53;;;;;;;4.55;2.28;;;;;;;25.50;58.92;101496.56;5072495;28;20043;-47
2022/09/06 09:55:24;;;;;;;4.47;1.95;;;;;;;25.53;58.72;101496.47;5073594;28;20123;-45
2022/09/06 09:57:53;;;;;;;4.10;2.00;;;;;;;25.54;58.95;101494.72;5075034;28;20427;-46
2022/09/06 10:00:39;;;;;;;7.55;2.20;;;;;;;25.63;58.27;101486.59;5073339;28;20048;-46
2022/09/06 10:03:16;;;;;;;3.38;2.00;;;;;;;25.68;57.98;101497.91;5075744;28;20028;-47
2022/09/06 10:05:53;;;;;;;2.97;2.08;;;;;;;25.66;57.75;101490.03;5069686;28;20408;-45
2022/09/06 10:08:23;;;;;;;4.15;2.00;;;;;;;25.74;57.97;101486.38;5070267;28;20541;-45
2022/09/06 10:10:49;;;;;;;2.38;1.90;;;;;;;25.81;57.65;101485.31;5071609;28;20143;-46
2022/09/06 10:13:22;;;;;;;3.45;1.67;;;;;;;25.85;57.83;101490.47;5073810;28;20474;-46
2022/09/06 10:15:50;;;;;;;3.70;2.10;;;;;;;25.95;57.05;101485.81;5068797;28;21738;-46
2022/09/06 10:18:33;;;;;;;3.53;2.30;;;;;;;26.00;57.61;101490.97;5071656;28;20027;-46
2022/09/06 10:21:09;;;;;;;3.35;2.00;;;;;;;26.12;57.63;101493.28;5073478;28;20115;-47
2022/09/06 10:24:05;;;;;;;6.72;2.75;;;;;;;26.20;57.51;101504.47;5073192;28;20510;-45
2022/09/06 10:26:45;;;;;;;4.63;2.33;;;;;;;26.40;56.88;101506.59;5071444;28;20036;-48
2022/09/06 10:29:13;;;;;;;5.93;2.40;;;;;;;26.45;55.19;101502.97;5072794;28;20552;-47
2022/09/06 10:31:38;;;;;;;4.23;1.93;;;;;;;26.65;55.27;101512.94;5071764;28;20086;-44
2022/09/06 10:34:33;;;;;;;4.28;2.40;;;;;;;26.75;54.97;101508.25;5072941;28;20464;-44
2022/09/06 10:37:24;;;;;;;4.78;2.20;;;;;;;26.95;54.49;101507.69;5067724;28;20035;-44
2022/09/06 10:40:01;;;;;;;5.15;2.00;;;;;;;27.15;54.99;101507.09;5075617;28;20107;-44
2022/09/06 10:42:45;;;;;;;4.28;2.38;;;;;;;27.24;54.11;101496.25;5072463;28;20032;-45
2022/09/06 10:45:42;;;;;;;3.20;2.10;;;;;;;27.48;55.09;101499.88;5074629;28;20397;-46
2022/09/06 10:48:26;;;;;;;5.35;2.70;;;;;;;27.65;52.67;101497.56;5070413;28;20055;-45
2022/09/06 10:50:53;;;;;;;6.35;2.13;;;;;;;27.88;53.21;101495.97;5071966;28;20035;-44
2022/09/06 10:53:40;;;;;;;5.05;2.53;;;;;;;27.96;52.77;101497.41;5068453;28;20028;-47
2022/09/06 10:56:25;;;;;;;8.18;2.78;;;;;;;28.09;51.44;101492.59;5072161;28;20020;-47
2022/09/06 10:58:58;;;;;;;4.70;2.45;;;;;;;28.25;51.74;101499.06;5066953;28;20112;-45
2022/09/06 11:01:43;;;;;;;6.57;3.17;;;;;;;28.13;51.11;101498.63;5073842;28;20434;-46
2022/09/06 11:04:18;;;;;;;4.82;2.60;;;;;;;28.08;51.25;101488.22;5068607;28;20119;-45
2022/09/06 11:06:49;;;;;;;4.72;2.60;;;;;;;28.01;51.23;101495.50;5071374;28;20048;-45
2022/09/06 11:09:38;;;;;;;5.95;2.67;;;;;;;28.16;51.41;101501.19;5076020;28;20085;-52
2022/09/06 11:12:21;;;;;;;3.63;2.20;;;;;;;28.48;51.26;101495.63;5060531;28;22169;-46
2022/09/06 11:14:47;;;;;;;4.88;2.60;;;;;;;28.62;49.06;101492.47;5069104;28;20678;-44
2022/09/06 11:17:26;;;;;;;5.55;2.80;;;;;;;28.85;48.88;101497.75;5070833;28;20050;-44
2022/09/06 11:20:10;;;;;;;5.18;2.90;;;;;;;29.03;49.47;101501.50;5073106;28;20065;-43
2022/09/06 11:22:57;;;;;;;6.72;3.08;;;;;;;29.16;48.93;101508.97;5072814;28;20110;-44
2022/09/06 11:25:28;;;;;;;8.05;2.60;;;;;;;29.16;48.61;101515.13;5074794;28;20027;-44
2022/09/06 11:27:58;;;;;;;5.85;2.50;;;;;;;29.33;48.13;101519.78;5073568;28;20472;-44
2022/09/06 11:30:26;;;;;;;5.65;2.63;;;;;;;29.48;47.14;101519.13;5074146;28;20626;-45
2022/09/06 11:33:07;;;;;;;22.40;4.97;;;;;;;29.77;46.68;101520.63;5072570;28;20064;-46
2022/09/06 11:35:33;;;;;;;14.80;4.03;;;;;;;29.88;45.54;101522.84;5073198;28;20688;-44
2022/09/06 11:38:14;;;;;;;6.90;2.70;;;;;;;30.15;46.61;101518.16;5070143;28;20029;-45